Time;durP1;ratioP1;P1;durP2;ratioP2;P2;SDS_P1;SDS_P2;PMS_P1;PMS_P2;Temp;Humidity;BMP_temperature;BMP_pressure;BME280_temperature;BME280_humidity;BME280_pressure;Samples;Min_cycle;Max_cycle;Signal;HPM_P1;HPM_P2
2021/12/18 00:02:01;;;;;;;11.90;10.80;;;9.80;62.90;;;-142.21;100.00;112049.66;4994231;28;20457;-75
2021/12/18 00:04:30;;;;;;;11.77;10.40;;;9.90;62.70;;;-142.21;100.00;112049.66;5007079;28;20542;-75
2021/12/18 00:06:57;;;;;;;12.60;11.37;;;9.70;62.80;;;-142.21;100.00;112049.66;4990136;28;20487;-76
2021/12/18 00:09:28;;;;;;;12.67;11.47;;;9.70;63.00;;;-142.21;100.00;112049.66;5010241;28;20456;-75
2021/12/18 00:11:55;;;;;;;13.87;12.47;;;9.70;63.00;;;-142.21;100.00;112049.66;4979717;28;20451;-76
2021/12/18 00:14:22;;;;;;;13.90;12.50;;;9.50;62.60;;;-142.21;100.00;112049.66;4993588;28;20451;-75
2021/12/18 00:16:50;;;;;;;13.17;11.90;;;9.60;63.20;;;-142.21;100.00;112049.66;5004607;28;20453;-76
2021/12/18 00:19:23;;;;;;;13.70;12.40;;;9.60;63.10;;;-142.21;100.00;112049.66;5012732;28;20790;-75
2021/12/18 00:21:52;;;;;;;13.67;12.27;;;9.60;62.70;;;-142.21;100.00;112049.66;5009820;28;20466;-75
2021/12/18 00:24:20;;;;;;;15.53;13.93;;;9.60;62.90;;;-142.21;100.00;112049.66;4994998;28;20439;-75
2021/12/18 00:26:47;;;;;;;15.20;13.60;;;9.40;63.00;;;-142.21;100.00;112049.66;4975438;28;20895;-75
2021/12/18 00:29:15;;;;;;;14.03;12.63;;;9.40;63.60;;;-142.21;100.00;112049.66;5001895;28;20456;-75
2021/12/18 00:31:42;;;;;;;15.43;13.70;;;9.30;63.50;;;-142.21;100.00;112049.66;4994420;28;20447;-75
2021/12/18 00:34:09;;;;;;;15.00;13.40;;;9.20;63.70;;;-142.21;100.00;112049.66;4993256;28;20455;-74
2021/12/18 00:36:36;;;;;;;16.13;14.53;;;9.10;64.30;;;-142.21;100.00;112049.66;4993536;28;20939;-75
2021/12/18 00:39:05;;;;;;;16.83;15.13;;;9.10;64.50;;;-142.21;100.00;112049.66;4980398;28;20529;-75
2021/12/18 00:41:48;;;;;;;16.57;14.87;;;9.10;64.60;;;-142.21;100.00;112049.66;5012938;28;20473;-75
2021/12/18 00:44:16;;;;;;;17.07;15.27;;;9.00;64.70;;;-142.21;100.00;112049.66;4984387;28;20461;-76
2021/12/18 00:46:47;;;;;;;16.87;14.97;;;9.00;64.70;;;-142.21;100.00;112049.66;5004020;28;20812;-75
2021/12/18 00:49:19;;;;;;;16.90;15.10;;;9.10;64.80;;;-142.21;100.00;112049.66;5005495;28;20448;-75
2021/12/18 00:51:47;;;;;;;16.97;15.27;;;9.00;65.40;;;-142.21;100.00;112049.66;5012342;28;20460;-75
2021/12/18 00:54:15;;;;;;;17.07;15.33;;;9.00;65.00;;;-142.21;100.00;112049.66;5010048;28;20841;-74
2021/12/18 00:56:43;;;;;;;17.40;15.47;;;9.00;65.10;;;-142.21;100.00;112049.66;4993175;28;20443;-74
2021/12/18 00:59:10;;;;;;;19.20;16.03;;;9.00;66.00;;;-142.21;100.00;112049.66;4997224;28;20466;-75
2021/12/18 01:01:37;;;;;;;17.40;15.60;;;8.90;65.10;;;-142.21;100.00;112049.66;5001672;28;20442;-76
2021/12/18 01:04:05;;;;;;;17.33;15.53;;;8.90;65.30;;;-142.21;100.00;112049.66;5012333;28;20450;-76
2021/12/18 01:06:33;;;;;;;17.57;15.77;;;8.70;65.30;;;-142.21;100.00;112049.66;4998174;28;20856;-75
2021/12/18 01:09:01;;;;;;;17.53;15.73;;;8.70;65.60;;;-142.21;100.00;112049.66;5010648;28;20500;-76
2021/12/18 01:11:34;;;;;;;16.93;15.23;;;8.70;65.80;;;-142.21;100.00;112049.66;5007938;28;20450;-75
2021/12/18 01:22:42;;;;;;;16.73;15.03;;;8.70;65.70;;;-142.21;100.00;112049.66;5006664;28;20447;-75
2021/12/18 01:22:48;;;;;;;16.33;14.63;;;8.60;66.30;;;-142.21;100.00;112049.66;5011049;28;20442;-77
2021/12/18 01:25:17;;;;;;;16.97;15.27;;;8.60;66.10;;;-142.21;100.00;112049.66;5004162;28;20457;-75
2021/12/18 01:27:47;;;;;;;16.83;15.03;;;8.60;65.90;;;-142.21;100.00;112049.66;5015779;28;20831;-75
2021/12/18 01:30:17;;;;;;;17.40;15.60;;;8.70;66.00;;;-142.21;100.00;112049.66;5005484;28;20451;-75
2021/12/18 01:32:44;;;;;;;16.90;15.10;;;8.60;66.10;;;-142.21;100.00;112049.66;5006991;28;20489;-75
2021/12/18 01:35:11;;;;;;;19.33;17.20;;;8.60;66.10;;;-142.21;100.00;112049.66;4982781;28;20447;-75
2021/12/18 01:37:41;;;;;;;18.20;16.30;;;8.70;66.00;;;-142.21;100.00;112049.66;4978167;28;20478;-76
2021/12/18 01:40:10;;;;;;;17.83;15.70;;;8.70;66.00;;;-142.21;100.00;112049.66;4978732;28;20509;-74
2021/12/18 01:45:30;;;;;;;17.60;15.70;;;8.60;65.90;;;-142.21;100.00;112049.66;4974673;28;20450;-75
2021/12/18 01:53:27;;;;;;;19.23;16.97;;;8.60;66.50;;;-142.21;100.00;112049.66;4996449;28;20511;-75
2021/12/18 01:55:55;;;;;;;17.97;16.03;;;8.60;66.40;;;-142.21;100.00;112049.66;4986302;28;20465;-75
2021/12/18 01:58:24;;;;;;;18.70;16.47;;;8.50;66.60;;;-142.21;100.00;112049.66;5002061;28;20790;-75
2021/12/18 02:00:55;;;;;;;18.33;16.33;;;8.50;66.80;;;-142.21;100.00;112049.66;4995567;28;20447;-75
2021/12/18 02:03:23;;;;;;;18.47;16.57;;;8.40;67.20;;;-142.21;100.00;112049.66;5013885;28;20454;-76
2021/12/18 02:05:53;;;;;;;19.17;17.07;;;8.40;67.20;;;-142.21;100.00;112049.66;4979678;28;20451;-76
2021/12/18 02:08:23;;;;;;;18.67;16.60;;;8.40;67.10;;;-142.21;100.00;112049.66;4995795;28;20498;-75
2021/12/18 02:10:55;;;;;;;19.50;17.47;;;8.50;67.00;;;-142.21;100.00;112049.66;4995809;28;20482;-76
2021/12/18 02:13:37;;;;;;;18.87;16.40;;;8.60;67.00;;;-142.21;100.00;112049.66;5007356;28;20806;-75
2021/12/18 02:21:38;;;;;;;17.53;15.73;;;8.60;66.50;;;-142.21;100.00;112049.66;4991080;28;20471;-75
2021/12/18 02:24:05;;;;;;;20.00;16.63;;;8.50;66.60;;;-142.21;100.00;112049.66;5015074;28;20454;-76
2021/12/18 02:26:32;;;;;;;18.53;16.03;;;8.50;66.60;;;-142.21;100.00;112049.66;4945599;28;20443;-76
2021/12/18 02:29:03;;;;;;;18.83;16.73;;;8.40;66.80;;;-142.21;100.00;112049.66;5010365;28;20485;-76
2021/12/18 02:31:31;;;;;;;18.73;16.73;;;8.50;67.00;;;-142.21;100.00;112049.66;5006553;28;20443;-74
2021/12/18 02:33:59;;;;;;;16.93;15.20;;;8.50;66.90;;;-142.21;100.00;112049.66;4976692;28;20449;-76
2021/12/18 02:36:27;;;;;;;18.33;16.20;;;8.60;66.80;;;-142.21;100.00;112049.66;4995349;28;20868;-77
2021/12/18 02:39:19;;;;;;;17.37;15.37;;;8.60;66.10;;;-142.21;100.00;112049.66;4996601;28;20455;-75
2021/12/18 02:42:07;;;;;;;18.37;16.17;;;8.70;66.30;;;-142.21;100.00;112049.66;4995642;28;20491;-75
2021/12/18 02:44:34;;;;;;;19.17;17.03;;;8.70;65.90;;;-142.21;100.00;112049.66;5010597;28;20443;-75
2021/12/18 02:47:01;;;;;;;18.67;16.67;;;8.70;65.70;;;-142.21;100.00;112049.66;4997784;28;20458;-76
2021/12/18 02:49:28;;;;;;;17.77;15.87;;;8.70;65.70;;;-142.21;100.00;112049.66;4944634;28;20451;-76
2021/12/18 02:51:56;;;;;;;17.87;16.10;;;8.80;65.60;;;-142.21;100.00;112049.66;4977733;28;20932;-74
2021/12/18 02:54:25;;;;;;;17.93;16.03;;;8.70;65.60;;;-142.21;100.00;112049.66;5013401;28;20457;-75
2021/12/18 02:56:53;;;;;;;18.63;16.57;;;8.70;66.00;;;-142.21;100.00;112049.66;5015181;28;20836;-76
2021/12/18 02:59:21;;;;;;;20.60;17.37;;;8.50;66.00;;;-142.21;100.00;112049.66;4994454;28;20471;-75
2021/12/18 03:01:49;;;;;;;19.70;17.50;;;8.50;66.50;;;-142.21;100.00;112049.66;4996895;28;20522;-75
2021/12/18 03:04:17;;;;;;;19.60;17.23;;;8.30;66.60;;;-142.21;100.00;112049.66;5006031;28;20457;-74
2021/12/18 03:06:47;;;;;;;18.07;16.17;;;8.50;66.90;;;-142.21;100.00;112049.66;4996875;28;20828;-75
2021/12/18 03:09:46;;;;;;;17.80;15.90;;;8.50;66.90;;;-142.21;100.00;112049.66;5014568;28;20788;-74
2021/12/18 03:23:27;;;;;;;18.57;16.10;;;8.40;66.60;;;-142.21;100.00;112049.66;5008067;28;20859;-75
2021/12/18 03:25:57;;;;;;;17.73;15.63;;;8.50;66.60;;;-142.21;100.00;112049.66;5003446;28;20446;-74
2021/12/18 03:28:27;;;;;;;19.20;16.47;;;8.50;66.70;;;-142.21;100.00;112049.66;5012533;28;20962;-74
2021/12/18 03:30:55;;;;;;;19.07;16.63;;;8.50;66.60;;;-142.21;100.00;112049.66;4991723;28;20469;-75
2021/12/18 03:33:23;;;;;;;20.83;16.50;;;8.60;66.90;;;-142.21;100.00;112049.66;4980163;28;20443;-75
2021/12/18 03:35:51;;;;;;;20.80;16.80;;;8.60;66.50;;;-142.21;100.00;112049.66;5008619;28;20992;-74
2021/12/18 03:38:18;;;;;;;18.37;16.43;;;8.40;66.60;;;-142.21;100.00;112049.66;5011352;28;20447;-75
2021/12/18 03:40:45;;;;;;;19.10;17.10;;;8.40;66.80;;;-142.21;100.00;112049.66;4999085;28;20466;-74
2021/12/18 03:43:12;;;;;;;19.37;16.37;;;8.40;66.70;;;-142.21;100.00;112049.66;5011465;28;20500;-75
2021/12/18 03:45:41;;;;;;;19.87;16.83;;;8.50;66.80;;;-142.21;100.00;112049.66;4994230;28;20538;-76
2021/12/18 03:48:08;;;;;;;18.33;16.43;;;8.40;66.70;;;-142.21;100.00;112049.66;4994170;28;20491;-76
2021/12/18 03:50:36;;;;;;;19.53;16.37;;;8.40;66.70;;;-142.21;100.00;112049.66;5000427;28;20447;-76
2021/12/18 03:53:03;;;;;;;18.47;15.93;;;8.60;66.70;;;-142.21;100.00;112049.66;4995419;28;21024;-76
2021/12/18 03:55:33;;;;;;;20.10;16.20;;;8.50;66.60;;;-142.21;100.00;112049.66;4999363;28;20465;-75
2021/12/18 03:58:00;;;;;;;17.30;15.47;;;8.50;66.90;;;-142.21;100.00;112049.66;5001248;28;20874;-76
2021/12/18 04:00:27;;;;;;;18.47;15.93;;;8.50;66.80;;;-142.21;100.00;112049.66;5003356;28;20553;-76
2021/12/18 04:02:56;;;;;;;17.33;15.13;;;8.50;66.90;;;-142.21;100.00;112049.66;5005394;28;20926;-75
2021/12/18 04:05:23;;;;;;;20.60;16.77;;;8.60;67.10;;;-142.21;100.00;112049.66;5010696;28;20450;-76
2021/12/18 04:07:51;;;;;;;19.77;16.37;;;8.50;66.90;;;-142.21;100.00;112049.66;5013290;28;20605;-75
2021/12/18 04:10:19;;;;;;;18.97;15.80;;;8.30;67.20;;;-142.21;100.00;112049.66;4998607;28;20461;-76
2021/12/18 04:12:49;;;;;;;18.73;15.07;;;8.30;67.60;;;-142.21;100.00;112049.66;4943653;28;20493;-76
2021/12/18 04:15:16;;;;;;;17.43;15.20;;;8.30;67.50;;;-142.21;100.00;112049.66;4993230;28;20486;-75
2021/12/18 04:17:43;;;;;;;18.33;15.43;;;8.50;67.70;;;-142.21;100.00;112049.66;5003528;28;20450;-76
2021/12/18 04:20:13;;;;;;;17.50;15.27;;;8.40;67.40;;;-142.21;100.00;112049.66;5012021;28;20536;-76
2021/12/18 04:22:40;;;;;;;17.97;15.83;;;8.30;67.70;;;-142.21;100.00;112049.66;5003714;28;20459;-75
2021/12/18 04:25:08;;;;;;;18.27;16.10;;;8.20;67.90;;;-142.21;100.00;112049.66;4994118;28;20455;-75
2021/12/18 04:27:35;;;;;;;18.73;16.13;;;8.20;68.10;;;-142.21;100.00;112049.66;4995465;28;20487;-75
2021/12/18 04:30:04;;;;;;;19.43;16.77;;;8.20;68.10;;;-142.21;100.00;112049.66;5002639;28;20458;-76
2021/12/18 04:32:31;;;;;;;19.73;16.53;;;8.10;68.30;;;-142.21;100.00;112049.66;4975154;28;20788;-75
2021/12/18 04:34:58;;;;;;;19.47;15.87;;;8.10;69.00;;;-142.21;100.00;112049.66;5004297;28;20957;-76
2021/12/18 04:37:27;;;;;;;19.70;16.67;;;8.10;68.50;;;-142.21;100.00;112049.66;5005324;28;20451;-75
2021/12/18 04:39:54;;;;;;;17.63;15.40;;;8.10;68.60;;;-142.21;100.00;112049.66;5005132;28;20460;-74
2021/12/18 04:42:21;;;;;;;20.23;16.47;;;8.10;68.60;;;-142.21;100.00;112049.66;4978934;28;20592;-75
2021/12/18 04:44:49;;;;;;;18.80;15.80;;;8.20;68.60;;;-142.21;100.00;112049.66;5012265;28;20476;-74
2021/12/18 04:47:16;;;;;;;18.87;16.67;;;8.30;68.20;;;-142.21;100.00;112049.66;5012603;28;20949;-76
2021/12/18 04:49:43;;;;;;;19.47;16.07;;;8.20;68.50;;;-142.21;100.00;112049.66;5011995;28;20546;-75
2021/12/18 04:52:10;;;;;;;18.10;16.03;;;8.20;68.50;;;-142.21;100.00;112049.66;5004720;28;20458;-74
2021/12/18 04:54:39;;;;;;;19.03;15.87;;;8.20;68.30;;;-142.21;100.00;112049.66;4999648;28;20446;-75
2021/12/18 04:57:06;;;;;;;20.17;16.73;;;8.30;68.50;;;-142.21;100.00;112049.66;4992759;28;20493;-76
2021/12/18 04:59:33;;;;;;;19.10;16.97;;;8.10;69.20;;;-142.21;100.00;112049.66;4993845;28;20471;-77
2021/12/18 05:02:02;;;;;;;19.47;16.73;;;8.20;68.90;;;-142.21;100.00;112049.66;4988382;28;20808;-75
2021/12/18 05:04:29;;;;;;;21.90;17.30;;;8.00;68.90;;;-142.21;100.00;112049.66;4993775;28;20456;-74
2021/12/18 05:06:56;;;;;;;18.73;15.68;;;8.10;69.10;;;-142.21;100.00;112049.66;4993596;28;20494;-75
2021/12/18 05:09:26;;;;;;;19.20;15.70;;;8.20;68.60;;;-142.21;100.00;112049.66;4988124;28;20237;-75
2021/12/18 05:11:55;;;;;;;20.53;15.93;;;8.30;68.50;;;-142.21;100.00;112049.66;5012105;28;20964;-76
2021/12/18 05:14:23;;;;;;;18.93;16.03;;;8.30;67.90;;;-142.21;100.00;112049.66;5011534;28;20794;-74
2021/12/18 05:16:50;;;;;;;19.30;15.80;;;8.40;67.90;;;-142.21;100.00;112049.66;4995664;28;20457;-76
2021/12/18 05:19:17;;;;;;;18.90;16.03;;;8.30;67.70;;;-142.21;100.00;112049.66;5008963;28;20445;-74
2021/12/18 05:21:44;;;;;;;18.30;16.30;;;8.30;68.10;;;-142.21;100.00;112049.66;4993312;28;20916;-75
2021/12/18 05:24:11;;;;;;;18.53;16.53;;;8.30;67.70;;;-142.21;100.00;112049.66;4985869;28;20450;-75
2021/12/18 05:26:38;;;;;;;20.37;17.17;;;8.50;67.70;;;-142.21;100.00;112049.66;5012492;28;20456;-75
2021/12/18 05:29:07;;;;;;;19.20;15.97;;;8.50;67.50;;;-142.21;100.00;112049.66;5006767;28;21020;-75
2021/12/18 05:31:35;;;;;;;18.30;15.43;;;8.50;67.30;;;-142.21;100.00;112049.66;5012539;28;20434;-74
2021/12/18 05:34:04;;;;;;;20.37;15.80;;;8.50;67.10;;;-142.21;100.00;112049.66;4991535;28;20451;-75
2021/12/18 05:36:35;;;;;;;18.87;16.00;;;8.50;67.50;;;-142.21;100.00;112049.66;4993156;28;20484;-74
2021/12/18 05:39:07;;;;;;;18.50;15.73;;;8.40;67.50;;;-142.21;100.00;112049.66;5012329;28;20450;-75
2021/12/18 05:41:34;;;;;;;19.00;16.67;;;8.40;67.40;;;-142.21;100.00;112049.66;5011680;28;20528;-75
2021/12/18 05:44:02;;;;;;;18.77;15.93;;;8.30;67.70;;;-142.21;100.00;112049.66;5011942;28;20517;-75
2021/12/18 05:46:31;;;;;;;18.90;15.30;;;8.30;68.70;;;-142.21;100.00;112049.66;5001904;28;20463;-75
2021/12/18 05:48:58;;;;;;;19.57;16.27;;;8.30;67.90;;;-142.21;100.00;112049.66;5003600;28;20482;-75
2021/12/18 05:51:25;;;;;;;20.33;16.07;;;8.40;67.90;;;-142.21;100.00;112049.66;5006196;28;20460;-75
2021/12/18 05:53:52;;;;;;;20.43;16.10;;;8.50;67.80;;;-142.21;100.00;112049.66;5011963;28;20488;-76
2021/12/18 05:56:20;;;;;;;18.43;15.23;;;8.50;67.30;;;-142.21;100.00;112049.66;5012174;28;20508;-75
2021/12/18 05:58:48;;;;;;;19.57;16.43;;;8.60;67.10;;;-142.21;100.00;112049.66;4997478;28;20439;-76
2021/12/18 06:01:18;;;;;;;18.53;15.40;;;8.60;67.00;;;-142.21;100.00;112049.66;4993829;28;20440;-75
2021/12/18 06:03:47;;;;;;;18.40;15.27;;;8.60;66.90;;;-142.21;100.00;112049.66;4994990;28;20438;-75
2021/12/18 06:06:15;;;;;;;17.87;15.33;;;8.60;67.00;;;-142.21;100.00;112049.66;5002340;28;20829;-74
2021/12/18 06:08:42;;;;;;;17.13;14.70;;;8.50;67.10;;;-142.21;100.00;112049.66;4993883;28;20487;-76
2021/12/18 06:11:13;;;;;;;21.07;16.40;;;8.60;67.20;;;-142.21;100.00;112049.66;4996156;28;20442;-74
2021/12/18 06:13:41;;;;;;;19.70;16.20;;;8.50;66.90;;;-142.21;100.00;112049.66;5004337;28;20949;-75
2021/12/18 06:16:09;;;;;;;20.37;15.80;;;8.60;67.10;;;-142.21;100.00;112049.66;4949188;28;20438;-76
2021/12/18 06:18:40;;;;;;;17.47;15.47;;;8.70;67.00;;;-142.21;100.00;112049.66;5015142;28;20446;-76
2021/12/18 06:21:09;;;;;;;18.20;15.43;;;8.50;66.90;;;-142.21;100.00;112049.66;4978319;28;20794;-76
2021/12/18 06:23:37;;;;;;;17.43;14.47;;;8.50;67.30;;;-142.21;100.00;112049.66;5007334;28;20502;-76
2021/12/18 06:26:04;;;;;;;18.73;15.27;;;8.60;67.20;;;-142.21;100.00;112049.66;5015097;28;20438;-76
2021/12/18 06:28:32;;;;;;;19.50;16.50;;;8.60;67.20;;;-142.21;100.00;112049.66;5015418;28;20486;-75
2021/12/18 06:31:00;;;;;;;19.50;16.38;;;8.70;67.80;;;-142.21;100.00;112049.66;5013530;28;20443;-76
2021/12/18 06:33:28;;;;;;;18.57;16.23;;;8.60;67.00;;;-142.21;100.00;112049.66;5003763;28;20200;-75
2021/12/18 06:35:56;;;;;;;18.37;15.80;;;8.40;67.10;;;-142.21;100.00;112049.66;4997196;28;20970;-75
2021/12/18 06:38:24;;;;;;;20.30;16.20;;;8.40;67.50;;;-142.21;100.00;112049.66;5006290;28;20500;-75
2021/12/18 06:40:51;;;;;;;20.47;16.43;;;8.30;67.70;;;-142.21;100.00;112049.66;5009985;28;20455;-76
2021/12/18 06:43:19;;;;;;;19.13;15.53;;;8.30;67.80;;;-142.21;100.00;112049.66;5013057;28;20485;-75
2021/12/18 06:45:46;;;;;;;21.57;16.00;;;8.20;67.90;;;-142.21;100.00;112049.66;5014742;28;20476;-73
2021/12/18 06:48:13;;;;;;;19.17;15.57;;;8.30;68.10;;;-142.21;100.00;112049.66;4994949;28;20447;-75
2021/12/18 06:50:41;;;;;;;19.43;16.30;;;8.20;68.20;;;-142.21;100.00;112049.66;4998852;28;20447;-75
2021/12/18 06:53:08;;;;;;;20.60;16.47;;;8.10;68.20;;;-142.21;100.00;112049.66;4979696;28;20498;-75
2021/12/18 06:55:37;;;;;;;20.30;16.53;;;8.30;68.40;;;-142.21;100.00;112049.66;5013992;28;20958;-76
2021/12/18 06:58:05;;;;;;;18.90;15.77;;;8.30;68.00;;;-142.21;100.00;112049.66;5014617;28;20462;-76
2021/12/18 07:00:32;;;;;;;18.10;15.60;;;8.30;67.90;;;-142.21;100.00;112049.66;4997108;28;20476;-76
2021/12/18 07:03:00;;;;;;;18.47;15.17;;;8.30;67.80;;;-142.21;100.00;112049.66;5011261;28;20449;-75
2021/12/18 07:05:27;;;;;;;18.80;15.37;;;8.20;68.00;;;-142.21;100.00;112049.66;4977389;28;21002;-77
2021/12/18 07:07:55;;;;;;;19.73;15.33;;;8.30;68.00;;;-142.21;100.00;112049.66;4995058;28;20450;-77
2021/12/18 07:10:24;;;;;;;18.67;15.67;;;8.40;67.90;;;-142.21;100.00;112049.66;4985206;28;20807;-73
2021/12/18 07:12:52;;;;;;;18.93;15.27;;;8.40;67.80;;;-142.21;100.00;112049.66;5014470;28;20481;-76
2021/12/18 07:15:20;;;;;;;20.70;16.17;;;8.30;67.50;;;-142.21;100.00;112049.66;5009743;28;20497;-77
2021/12/18 07:17:47;;;;;;;19.77;16.50;;;8.30;67.70;;;-142.21;100.00;112049.66;4976940;28;21099;-76
2021/12/18 07:20:14;;;;;;;19.40;15.70;;;8.30;67.50;;;-142.21;100.00;112049.66;5004793;28;20451;-75
2021/12/18 07:22:42;;;;;;;18.30;15.27;;;8.30;67.80;;;-142.21;100.00;112049.66;5006615;28;20489;-75
2021/12/18 07:25:10;;;;;;;17.57;15.27;;;8.20;67.70;;;-142.21;100.00;112049.66;4997216;28;20465;-74
2021/12/18 07:27:38;;;;;;;17.60;14.30;;;8.30;68.00;;;-142.21;100.00;112049.66;5013702;28;20460;-75
2021/12/18 07:30:09;;;;;;;19.40;15.73;;;8.30;67.70;;;-142.21;100.00;112049.66;5013219;28;20491;-76
2021/12/18 07:32:37;;;;;;;18.40;15.57;;;8.30;67.70;;;-142.21;100.00;112049.66;5012734;28;20500;-75
2021/12/18 07:35:05;;;;;;;19.07;15.87;;;8.30;67.70;;;-142.21;100.00;112049.66;5013474;28;20489;-76
2021/12/18 07:37:33;;;;;;;17.57;14.83;;;8.20;67.60;;;-142.21;100.00;112049.66;5014034;28;20810;-74
2021/12/18 07:40:00;;;;;;;19.50;16.03;;;8.10;67.30;;;-142.21;100.00;112049.66;5013617;28;20438;-75
2021/12/18 07:42:29;;;;;;;18.93;15.30;;;8.20;67.90;;;-142.21;100.00;112049.66;5013494;28;20486;-76
2021/12/18 07:44:58;;;;;;;19.87;16.70;;;8.20;67.70;;;-142.21;100.00;112049.66;5013242;28;20456;-74
2021/12/18 07:47:27;;;;;;;17.97;15.97;;;8.00;68.00;;;-142.21;100.00;112049.66;4985049;28;20474;-75
2021/12/18 07:49:54;;;;;;;17.70;14.73;;;8.00;68.10;;;-142.21;100.00;112049.66;5009702;28;20497;-76
2021/12/18 07:52:22;;;;;;;19.33;15.13;;;8.10;68.20;;;-142.21;100.00;112049.66;5014094;28;20458;-73
2021/12/18 07:54:52;;;;;;;19.47;15.73;;;8.10;67.80;;;-142.21;100.00;112049.66;5000687;28;20780;-75
2021/12/18 07:57:19;;;;;;;18.50;15.43;;;8.20;67.80;;;-142.21;100.00;112049.66;5004760;28;20441;-75
2021/12/18 07:59:47;;;;;;;22.27;16.03;;;8.10;67.60;;;-142.21;100.00;112049.66;4995858;28;21009;-76
2021/12/18 08:02:14;;;;;;;16.77;14.77;;;8.00;67.70;;;-142.21;100.00;112049.66;4993101;28;20489;-76
2021/12/18 08:04:42;;;;;;;21.00;16.23;;;8.00;68.00;;;-142.21;100.00;112049.66;4993981;28;20468;-76
2021/12/18 08:07:09;;;;;;;19.67;16.08;;;7.90;68.30;;;-142.21;100.00;112049.66;5012427;28;20445;-75
2021/12/18 08:09:36;;;;;;;19.20;15.07;;;7.90;68.40;;;-142.21;100.00;112049.66;5013229;28;20234;-76
2021/12/18 08:12:05;;;;;;;18.53;14.93;;;7.90;68.80;;;-142.21;100.00;112049.66;5013525;28;20871;-74
2021/12/18 08:14:33;;;;;;;19.47;15.30;;;7.90;68.80;;;-142.21;100.00;112049.66;4995508;28;20446;-77
2021/12/18 08:17:00;;;;;;;18.33;14.27;;;8.00;68.60;;;-142.21;100.00;112049.66;5013476;28;20442;-77
2021/12/18 08:19:27;;;;;;;19.80;15.43;;;8.00;68.60;;;-142.21;100.00;112049.66;5012615;28;20548;-76
2021/12/18 08:21:56;;;;;;;18.77;14.43;;;8.00;68.80;;;-142.21;100.00;112049.66;4989479;28;20473;-76
2021/12/18 08:24:23;;;;;;;19.13;15.10;;;8.00;68.50;;;-142.21;100.00;112049.66;5032743;28;20936;-76
2021/12/18 08:26:50;;;;;;;19.13;14.37;;;8.00;68.50;;;-142.21;100.00;112049.66;5033205;28;20477;-75
2021/12/18 08:29:18;;;;;;;18.27;14.40;;;8.00;68.20;;;-142.21;100.00;112049.66;5033161;28;20485;-77
2021/12/18 08:31:45;;;;;;;19.17;14.83;;;8.00;68.70;;;-142.21;100.00;112049.66;5014331;28;20449;-76
2021/12/18 08:34:12;;;;;;;17.43;14.50;;;7.90;69.00;;;-142.21;100.00;112049.66;4996905;28;20545;-76
2021/12/18 08:36:40;;;;;;;16.83;13.67;;;8.00;69.10;;;-142.21;100.00;112049.66;4976498;28;20447;-75
2021/12/18 08:39:11;;;;;;;19.33;14.50;;;8.00;68.90;;;-142.21;100.00;112049.66;4993442;28;20449;-75
2021/12/18 08:41:39;;;;;;;17.43;13.97;;;8.10;68.80;;;-142.21;100.00;112049.66;5009100;28;20513;-78
2021/12/18 08:44:07;;;;;;;17.87;14.70;;;8.00;68.90;;;-142.21;100.00;112049.66;5013482;28;20496;-77
2021/12/18 08:46:35;;;;;;;18.73;14.77;;;8.00;68.90;;;-142.21;100.00;112049.66;5012917;28;20454;-77
2021/12/18 08:49:02;;;;;;;18.47;14.73;;;8.00;69.30;;;-142.21;100.00;112049.66;5012609;28;20581;-77
2021/12/18 08:51:29;;;;;;;18.90;15.47;;;8.00;69.20;;;-142.21;100.00;112049.66;5013073;28;20512;-76
2021/12/18 08:53:57;;;;;;;18.93;14.40;;;8.10;69.30;;;-142.21;100.00;112049.66;5012663;28;20445;-76
2021/12/18 08:56:25;;;;;;;17.23;14.17;;;8.10;69.00;;;-142.21;100.00;112049.66;4995636;28;20450;-76
2021/12/18 08:58:54;;;;;;;17.73;14.60;;;8.20;69.20;;;-142.21;100.00;112049.66;5007500;28;20446;-77
2021/12/18 09:01:23;;;;;;;19.33;14.37;;;8.20;69.10;;;-142.21;100.00;112049.66;5012228;28;20458;-76
2021/12/18 09:03:50;;;;;;;18.10;13.97;;;8.20;68.80;;;-142.21;100.00;112049.66;4995314;28;20454;-74
2021/12/18 09:06:18;;;;;;;16.23;13.57;;;8.30;68.70;;;-142.21;100.00;112049.66;5008171;28;20812;-77
2021/12/18 09:08:45;;;;;;;17.43;13.40;;;8.50;68.60;;;-142.21;100.00;112049.66;5012831;28;20457;-76
2021/12/18 09:11:14;;;;;;;19.33;14.57;;;8.30;67.90;;;-142.21;100.00;112049.66;5012102;28;20934;-76
2021/12/18 09:13:42;;;;;;;18.08;14.40;;;8.30;68.30;;;-142.21;100.00;112049.66;5008366;28;20534;-76
2021/12/18 09:16:10;;;;;;;17.33;14.60;;;8.20;68.50;;;-142.21;100.00;112049.66;4992456;28;20204;-76
2021/12/18 09:18:37;;;;;;;18.00;14.20;;;8.30;68.70;;;-142.21;100.00;112049.66;4992467;28;20467;-77
2021/12/18 09:21:05;;;;;;;16.83;13.23;;;8.50;68.30;;;-142.21;100.00;112049.66;4975069;28;20454;-77
2021/12/18 09:23:32;;;;;;;18.53;14.10;;;8.60;67.90;;;-142.21;100.00;112049.66;4993214;28;20442;-77
2021/12/18 09:26:01;;;;;;;16.90;14.27;;;8.60;68.20;;;-142.21;100.00;112049.66;4993335;28;20533;-77
2021/12/18 09:28:28;;;;;;;18.83;14.40;;;8.50;67.90;;;-142.21;100.00;112049.66;4992215;28;20528;-77
2021/12/18 09:30:57;;;;;;;20.80;15.33;;;8.50;68.00;;;-142.21;100.00;112049.66;4992593;28;20570;-77
2021/12/18 09:33:24;;;;;;;18.00;13.87;;;8.40;68.30;;;-142.21;100.00;112049.66;4992949;28;20461;-76
2021/12/18 09:35:51;;;;;;;19.90;15.23;;;8.40;68.20;;;-142.21;100.00;112049.66;4975679;28;20843;-77
2021/12/18 09:38:20;;;;;;;18.67;14.80;;;8.40;68.20;;;-142.21;100.00;112049.66;4992596;28;20530;-76
2021/12/18 09:40:47;;;;;;;19.10;15.03;;;8.20;68.70;;;-142.21;100.00;112049.66;4993247;28;20517;-76
2021/12/18 09:43:15;;;;;;;17.73;14.50;;;8.30;68.80;;;-142.21;100.00;112049.66;4976677;28;21072;-77
2021/12/18 09:45:45;;;;;;;18.57;16.10;;;8.40;68.50;;;-142.21;100.00;112049.66;4979501;28;20804;-73
2021/12/18 09:48:14;;;;;;;19.33;15.20;;;8.50;68.30;;;-142.21;100.00;112049.66;5015560;28;20469;-76
2021/12/18 09:50:43;;;;;;;20.03;15.27;;;8.50;68.30;;;-142.21;100.00;112049.66;5015466;28;20568;-76
2021/12/18 09:53:10;;;;;;;17.80;14.70;;;8.40;68.40;;;-142.21;100.00;112049.66;5016083;28;20446;-76
2021/12/18 09:55:38;;;;;;;19.37;14.57;;;8.40;68.50;;;-142.21;100.00;112049.66;5010233;28;20530;-75
2021/12/18 09:58:05;;;;;;;19.23;14.80;;;8.50;68.60;;;-142.21;100.00;112049.66;4996446;28;20450;-77
2021/12/18 10:00:32;;;;;;;18.97;15.10;;;8.30;68.80;;;-142.21;100.00;112049.66;5000613;28;20454;-75
2021/12/18 10:03:00;;;;;;;20.20;15.83;;;8.30;68.70;;;-142.21;100.00;112049.66;5015809;28;20932;-77
2021/12/18 10:05:38;;;;;;;19.07;15.23;;;8.30;69.00;;;-142.21;100.00;112049.66;5015659;28;20450;-74
2021/12/18 10:08:12;;;;;;;17.43;14.23;;;8.40;69.00;;;-142.21;100.00;112049.66;5015014;28;20437;-76
2021/12/18 10:10:59;;;;;;;19.07;14.90;;;8.40;69.10;;;-142.21;100.00;112049.66;5015578;28;20470;-76
2021/12/18 10:13:27;;;;;;;17.70;14.03;;;8.40;69.00;;;-142.21;100.00;112049.66;5015755;28;20586;-75
2021/12/18 10:16:12;;;;;;;17.20;13.73;;;8.40;68.70;;;-142.21;100.00;112049.66;5014127;28;20477;-76
2021/12/18 10:18:40;;;;;;;18.90;14.67;;;8.40;68.90;;;-142.21;100.00;112049.66;5016024;28;20972;-75
2021/12/18 10:21:16;;;;;;;19.33;14.27;;;8.40;69.00;;;-142.21;100.00;112049.66;5015148;28;20918;-76
2021/12/18 10:23:45;;;;;;;18.47;14.40;;;8.50;69.30;;;-142.21;100.00;112049.66;5015803;28;20520;-76
2021/12/18 10:26:37;;;;;;;18.37;14.60;;;8.50;69.50;;;-142.21;100.00;112049.66;5015382;28;20942;-74